<?xml version="1.0" encoding="UTF-8" standalone="no" ?>
<gpx xmlns="http://www.topografix.com/GPX/1/1" xmlns:xsi="http://www.w3.org/2001/XMLSchema-instance" xsi:schemaLocation="http://www.topografix.com/GPX/1/1 http://www.topografix.com/GPX/1/1/gpx.xsd" version="1.1" creator="VisuGPX - https://www.visugpx.com">
  <metadata>
    <name>canyon des gueulards à ombleze</name>
    <desc><![CDATA[une super rando au frais dans le canyon.
niveau facile.]]></desc>
  </metadata>
  <trk>
    <name><![CDATA[2015-08-12 12:18]]></name>
    <desc><![CDATA[<h1>OruxMaps</h1><br /><hr align="center" width="480" style="height: 2px; width: 517px"/><h2>Nom: 2015-08-12 12:18</h2><br /><p>Temps de départ: 08/12/2015 12:19</p><p>Temps d'arrivée: 08/12/2015 16:26</p><p>Distance: 9,5km (04:07)</p><p>Temps déplacement: 01:30</p><p>Vitesse moyenne: 2,3km/h</p><p>Vitesse moyenne: 6,3km/h</p><p>Vitess Max.: 25,3km/h</p><p>Altitude minimale: 516m</p><p>Altitude maximale: 831m</p><p>Vitesse d'élévation: 351,9m/h</p><p>Vitesse de descente: -279,1m/h</p><p>Gain Altitude: 639m</p><p>Perte Altitude: -571m</p><p>Temps d'élévation: 01:48</p><p>Temps de descente: 02:02</p><hr align="center" width="480" style="height: 2px; width: 517px"/>]]></desc>
    <trkseg>
      <trkpt lat="44.83906" lon="5.18823">
        <ele>528.97</ele>
        <time>2015-08-12T10:19:15Z</time>
      </trkpt>
      <trkpt lat="44.83912" lon="5.18848">
        <ele>520.47</ele>
        <time>2015-08-12T10:19:42Z</time>
      </trkpt>
      <trkpt lat="44.83906" lon="5.18873">
        <ele>516.83</ele>
        <time>2015-08-12T10:20:05Z</time>
      </trkpt>
      <trkpt lat="44.8392" lon="5.18911">
        <ele>526.32</ele>
        <time>2015-08-12T10:21:00Z</time>
      </trkpt>
      <trkpt lat="44.83927" lon="5.18883">
        <ele>529.84</ele>
        <time>2015-08-12T10:21:13Z</time>
      </trkpt>
      <trkpt lat="44.83945" lon="5.18887">
        <ele>545.78</ele>
        <time>2015-08-12T10:21:43Z</time>
      </trkpt>
      <trkpt lat="44.83961" lon="5.18906">
        <ele>564.5</ele>
        <time>2015-08-12T10:22:25Z</time>
      </trkpt>
      <trkpt lat="44.83965" lon="5.18934">
        <ele>588.6</ele>
        <time>2015-08-12T10:23:07Z</time>
      </trkpt>
      <trkpt lat="44.84016" lon="5.18961">
        <ele>600.01</ele>
        <time>2015-08-12T10:23:24Z</time>
      </trkpt>
      <trkpt lat="44.8403" lon="5.18943">
        <ele>616.29</ele>
        <time>2015-08-12T10:23:41Z</time>
      </trkpt>
      <trkpt lat="44.84048" lon="5.18932">
        <ele>625.34</ele>
        <time>2015-08-12T10:25:27Z</time>
      </trkpt>
      <trkpt lat="44.84067" lon="5.18929">
        <ele>625.57</ele>
        <time>2015-08-12T10:25:32Z</time>
      </trkpt>
      <trkpt lat="44.84083" lon="5.18904">
        <ele>619.63</ele>
        <time>2015-08-12T10:31:51Z</time>
      </trkpt>
      <trkpt lat="44.84099" lon="5.18892">
        <ele>620.3</ele>
        <time>2015-08-12T10:31:58Z</time>
      </trkpt>
      <trkpt lat="44.84212" lon="5.18817">
        <ele>625.19</ele>
        <time>2015-08-12T10:34:08Z</time>
      </trkpt>
      <trkpt lat="44.842" lon="5.18835">
        <ele>646.03</ele>
        <time>2015-08-12T10:34:13Z</time>
      </trkpt>
      <trkpt lat="44.84213" lon="5.18863">
        <ele>649.34</ele>
        <time>2015-08-12T10:35:17Z</time>
      </trkpt>
      <trkpt lat="44.84229" lon="5.1888">
        <ele>649.88</ele>
        <time>2015-08-12T10:35:22Z</time>
      </trkpt>
      <trkpt lat="44.8425" lon="5.18881">
        <ele>629.65</ele>
        <time>2015-08-12T10:36:10Z</time>
      </trkpt>
      <trkpt lat="44.84271" lon="5.18878">
        <ele>629.64</ele>
        <time>2015-08-12T10:36:16Z</time>
      </trkpt>
      <trkpt lat="44.84287" lon="5.18864">
        <ele>634.29</ele>
        <time>2015-08-12T10:36:22Z</time>
      </trkpt>
      <trkpt lat="44.84301" lon="5.1884">
        <ele>638.55</ele>
        <time>2015-08-12T10:36:43Z</time>
      </trkpt>
      <trkpt lat="44.84316" lon="5.18827">
        <ele>646.68</ele>
        <time>2015-08-12T10:36:48Z</time>
      </trkpt>
      <trkpt lat="44.84335" lon="5.18838">
        <ele>661.71</ele>
        <time>2015-08-12T10:37:06Z</time>
      </trkpt>
      <trkpt lat="44.84351" lon="5.18823">
        <ele>659.36</ele>
        <time>2015-08-12T10:37:38Z</time>
      </trkpt>
      <trkpt lat="44.84369" lon="5.18819">
        <ele>655.83</ele>
        <time>2015-08-12T10:37:55Z</time>
      </trkpt>
      <trkpt lat="44.84388" lon="5.18816">
        <ele>654.9</ele>
        <time>2015-08-12T10:38:18Z</time>
      </trkpt>
      <trkpt lat="44.84406" lon="5.18802">
        <ele>655.13</ele>
        <time>2015-08-12T10:38:41Z</time>
      </trkpt>
      <trkpt lat="44.84424" lon="5.18799">
        <ele>656.98</ele>
        <time>2015-08-12T10:39:11Z</time>
      </trkpt>
      <trkpt lat="44.84442" lon="5.18802">
        <ele>656.8</ele>
        <time>2015-08-12T10:39:24Z</time>
      </trkpt>
      <trkpt lat="44.84463" lon="5.18798">
        <ele>658.72</ele>
        <time>2015-08-12T10:39:45Z</time>
      </trkpt>
      <trkpt lat="44.84473" lon="5.18819">
        <ele>661.67</ele>
        <time>2015-08-12T10:40:05Z</time>
      </trkpt>
      <trkpt lat="44.84492" lon="5.18826">
        <ele>668.49</ele>
        <time>2015-08-12T10:42:03Z</time>
      </trkpt>
      <trkpt lat="44.84509" lon="5.18835">
        <ele>670.57</ele>
        <time>2015-08-12T10:42:14Z</time>
      </trkpt>
      <trkpt lat="44.8453" lon="5.18841">
        <ele>669.78</ele>
        <time>2015-08-12T10:42:37Z</time>
      </trkpt>
      <trkpt lat="44.8455" lon="5.18849">
        <ele>668.61</ele>
        <time>2015-08-12T10:42:41Z</time>
      </trkpt>
      <trkpt lat="44.84568" lon="5.18857">
        <ele>670.72</ele>
        <time>2015-08-12T10:42:49Z</time>
      </trkpt>
      <trkpt lat="44.84581" lon="5.18876">
        <ele>672.32</ele>
        <time>2015-08-12T10:43:49Z</time>
      </trkpt>
      <trkpt lat="44.84598" lon="5.18888">
        <ele>672.19</ele>
        <time>2015-08-12T10:43:56Z</time>
      </trkpt>
      <trkpt lat="44.84616" lon="5.18893">
        <ele>674.58</ele>
        <time>2015-08-12T10:44:11Z</time>
      </trkpt>
      <trkpt lat="44.84635" lon="5.18894">
        <ele>662.13</ele>
        <time>2015-08-12T10:44:27Z</time>
      </trkpt>
      <trkpt lat="44.84655" lon="5.18903">
        <ele>662.81</ele>
        <time>2015-08-12T10:44:35Z</time>
      </trkpt>
      <trkpt lat="44.8467" lon="5.18888">
        <ele>654.42</ele>
        <time>2015-08-12T10:44:58Z</time>
      </trkpt>
      <trkpt lat="44.84683" lon="5.18904">
        <ele>654.84</ele>
        <time>2015-08-12T10:46:22Z</time>
      </trkpt>
      <trkpt lat="44.8469" lon="5.18928">
        <ele>654.62</ele>
        <time>2015-08-12T10:46:32Z</time>
      </trkpt>
      <trkpt lat="44.84698" lon="5.18954">
        <ele>649.75</ele>
        <time>2015-08-12T10:47:11Z</time>
      </trkpt>
      <trkpt lat="44.84709" lon="5.1898">
        <ele>648.84</ele>
        <time>2015-08-12T10:47:29Z</time>
      </trkpt>
      <trkpt lat="44.84717" lon="5.19004">
        <ele>647.93</ele>
        <time>2015-08-12T10:48:27Z</time>
      </trkpt>
      <trkpt lat="44.84726" lon="5.19032">
        <ele>648.9</ele>
        <time>2015-08-12T10:48:32Z</time>
      </trkpt>
      <trkpt lat="44.84744" lon="5.19044">
        <ele>647.96</ele>
        <time>2015-08-12T10:48:39Z</time>
      </trkpt>
      <trkpt lat="44.84762" lon="5.19036">
        <ele>646.8</ele>
        <time>2015-08-12T10:49:32Z</time>
      </trkpt>
      <trkpt lat="44.84775" lon="5.19017">
        <ele>644.58</ele>
        <time>2015-08-12T10:50:01Z</time>
      </trkpt>
      <trkpt lat="44.84796" lon="5.19024">
        <ele>646.48</ele>
        <time>2015-08-12T10:51:19Z</time>
      </trkpt>
      <trkpt lat="44.84815" lon="5.19036">
        <ele>648.2</ele>
        <time>2015-08-12T10:51:24Z</time>
      </trkpt>
      <trkpt lat="44.8484" lon="5.1904">
        <ele>649.27</ele>
        <time>2015-08-12T10:53:28Z</time>
      </trkpt>
      <trkpt lat="44.84857" lon="5.19055">
        <ele>658.57</ele>
        <time>2015-08-12T10:53:32Z</time>
      </trkpt>
      <trkpt lat="44.84874" lon="5.19064">
        <ele>656.1</ele>
        <time>2015-08-12T10:53:36Z</time>
      </trkpt>
      <trkpt lat="44.84891" lon="5.19072">
        <ele>656.47</ele>
        <time>2015-08-12T10:53:47Z</time>
      </trkpt>
      <trkpt lat="44.84912" lon="5.19063">
        <ele>659.65</ele>
        <time>2015-08-12T10:54:08Z</time>
      </trkpt>
      <trkpt lat="44.84927" lon="5.19048">
        <ele>661.66</ele>
        <time>2015-08-12T10:54:35Z</time>
      </trkpt>
      <trkpt lat="44.84906" lon="5.19046">
        <ele>651.64</ele>
        <time>2015-08-12T10:56:57Z</time>
      </trkpt>
      <trkpt lat="44.84893" lon="5.19066">
        <ele>649.85</ele>
        <time>2015-08-12T10:57:03Z</time>
      </trkpt>
      <trkpt lat="44.84902" lon="5.19089">
        <ele>648.18</ele>
        <time>2015-08-12T10:57:24Z</time>
      </trkpt>
      <trkpt lat="44.84888" lon="5.19073">
        <ele>660.77</ele>
        <time>2015-08-12T10:59:18Z</time>
      </trkpt>
      <trkpt lat="44.84871" lon="5.1906">
        <ele>659.23</ele>
        <time>2015-08-12T10:59:28Z</time>
      </trkpt>
      <trkpt lat="44.84855" lon="5.19043">
        <ele>655.29</ele>
        <time>2015-08-12T11:00:12Z</time>
      </trkpt>
      <trkpt lat="44.84841" lon="5.19025">
        <ele>654.99</ele>
        <time>2015-08-12T11:00:18Z</time>
      </trkpt>
      <trkpt lat="44.84822" lon="5.19014">
        <ele>654.97</ele>
        <time>2015-08-12T11:00:39Z</time>
      </trkpt>
      <trkpt lat="44.84803" lon="5.19003">
        <ele>655.03</ele>
        <time>2015-08-12T11:00:46Z</time>
      </trkpt>
      <trkpt lat="44.84785" lon="5.19006">
        <ele>650.77</ele>
        <time>2015-08-12T11:01:00Z</time>
      </trkpt>
      <trkpt lat="44.84768" lon="5.1902">
        <ele>648.23</ele>
        <time>2015-08-12T11:01:20Z</time>
      </trkpt>
      <trkpt lat="44.84759" lon="5.19043">
        <ele>642.42</ele>
        <time>2015-08-12T11:02:26Z</time>
      </trkpt>
      <trkpt lat="44.84769" lon="5.19068">
        <ele>644.06</ele>
        <time>2015-08-12T11:02:48Z</time>
      </trkpt>
      <trkpt lat="44.84777" lon="5.19091">
        <ele>647.08</ele>
        <time>2015-08-12T11:05:22Z</time>
      </trkpt>
      <trkpt lat="44.84791" lon="5.19108">
        <ele>653.39</ele>
        <time>2015-08-12T11:05:27Z</time>
      </trkpt>
      <trkpt lat="44.848" lon="5.19131">
        <ele>652.04</ele>
        <time>2015-08-12T11:05:53Z</time>
      </trkpt>
      <trkpt lat="44.84814" lon="5.19147">
        <ele>651.73</ele>
        <time>2015-08-12T11:06:18Z</time>
      </trkpt>
      <trkpt lat="44.84828" lon="5.19166">
        <ele>658.77</ele>
        <time>2015-08-12T11:06:23Z</time>
      </trkpt>
      <trkpt lat="44.84844" lon="5.1918">
        <ele>653.54</ele>
        <time>2015-08-12T11:06:44Z</time>
      </trkpt>
      <trkpt lat="44.84845" lon="5.19207">
        <ele>658.13</ele>
        <time>2015-08-12T11:07:19Z</time>
      </trkpt>
      <trkpt lat="44.84851" lon="5.19238">
        <ele>657.28</ele>
        <time>2015-08-12T11:08:00Z</time>
      </trkpt>
      <trkpt lat="44.84862" lon="5.19261">
        <ele>660.27</ele>
        <time>2015-08-12T11:08:33Z</time>
      </trkpt>
      <trkpt lat="44.84869" lon="5.19285">
        <ele>663.53</ele>
        <time>2015-08-12T11:08:52Z</time>
      </trkpt>
      <trkpt lat="44.84885" lon="5.193">
        <ele>671.07</ele>
        <time>2015-08-12T11:09:19Z</time>
      </trkpt>
      <trkpt lat="44.84905" lon="5.19298">
        <ele>670.74</ele>
        <time>2015-08-12T11:09:35Z</time>
      </trkpt>
      <trkpt lat="44.84922" lon="5.19307">
        <ele>670.52</ele>
        <time>2015-08-12T11:10:06Z</time>
      </trkpt>
      <trkpt lat="44.84942" lon="5.19317">
        <ele>670.18</ele>
        <time>2015-08-12T11:10:18Z</time>
      </trkpt>
      <trkpt lat="44.84961" lon="5.19319">
        <ele>673.4</ele>
        <time>2015-08-12T11:10:30Z</time>
      </trkpt>
      <trkpt lat="44.8498" lon="5.19332">
        <ele>681</ele>
        <time>2015-08-12T11:11:47Z</time>
      </trkpt>
      <trkpt lat="44.84996" lon="5.19343">
        <ele>682.41</ele>
        <time>2015-08-12T11:12:05Z</time>
      </trkpt>
      <trkpt lat="44.85014" lon="5.1935">
        <ele>687.87</ele>
        <time>2015-08-12T11:12:22Z</time>
      </trkpt>
      <trkpt lat="44.85032" lon="5.19359">
        <ele>685.52</ele>
        <time>2015-08-12T11:12:49Z</time>
      </trkpt>
      <trkpt lat="44.8505" lon="5.19371">
        <ele>689.94</ele>
        <time>2015-08-12T11:13:09Z</time>
      </trkpt>
      <trkpt lat="44.85068" lon="5.19365">
        <ele>688.33</ele>
        <time>2015-08-12T11:13:39Z</time>
      </trkpt>
      <trkpt lat="44.85085" lon="5.19359">
        <ele>688.81</ele>
        <time>2015-08-12T11:13:54Z</time>
      </trkpt>
      <trkpt lat="44.85105" lon="5.19356">
        <ele>690.21</ele>
        <time>2015-08-12T11:14:08Z</time>
      </trkpt>
      <trkpt lat="44.85123" lon="5.19358">
        <ele>691.23</ele>
        <time>2015-08-12T11:14:38Z</time>
      </trkpt>
      <trkpt lat="44.8514" lon="5.19353">
        <ele>697.56</ele>
        <time>2015-08-12T11:15:26Z</time>
      </trkpt>
      <trkpt lat="44.85159" lon="5.19356">
        <ele>696.66</ele>
        <time>2015-08-12T11:15:35Z</time>
      </trkpt>
      <trkpt lat="44.85177" lon="5.19356">
        <ele>694.07</ele>
        <time>2015-08-12T11:15:49Z</time>
      </trkpt>
      <trkpt lat="44.85196" lon="5.19352">
        <ele>696.02</ele>
        <time>2015-08-12T11:16:16Z</time>
      </trkpt>
      <trkpt lat="44.85212" lon="5.19342">
        <ele>698.34</ele>
        <time>2015-08-12T11:16:42Z</time>
      </trkpt>
      <trkpt lat="44.85229" lon="5.19333">
        <ele>696.01</ele>
        <time>2015-08-12T11:16:53Z</time>
      </trkpt>
      <trkpt lat="44.85246" lon="5.19319">
        <ele>699.77</ele>
        <time>2015-08-12T11:17:20Z</time>
      </trkpt>
      <trkpt lat="44.85261" lon="5.19303">
        <ele>703.99</ele>
        <time>2015-08-12T11:20:50Z</time>
      </trkpt>
      <trkpt lat="44.8528" lon="5.19293">
        <ele>701.63</ele>
        <time>2015-08-12T11:21:06Z</time>
      </trkpt>
      <trkpt lat="44.85295" lon="5.19278">
        <ele>699.89</ele>
        <time>2015-08-12T11:21:21Z</time>
      </trkpt>
      <trkpt lat="44.85299" lon="5.19252">
        <ele>701.69</ele>
        <time>2015-08-12T11:22:16Z</time>
      </trkpt>
      <trkpt lat="44.85313" lon="5.19228">
        <ele>700.82</ele>
        <time>2015-08-12T11:22:24Z</time>
      </trkpt>
      <trkpt lat="44.85318" lon="5.19201">
        <ele>697.42</ele>
        <time>2015-08-12T11:22:36Z</time>
      </trkpt>
      <trkpt lat="44.85314" lon="5.19175">
        <ele>696.8</ele>
        <time>2015-08-12T11:22:47Z</time>
      </trkpt>
      <trkpt lat="44.85314" lon="5.19148">
        <ele>693.93</ele>
        <time>2015-08-12T11:23:17Z</time>
      </trkpt>
      <trkpt lat="44.85317" lon="5.19123">
        <ele>693.04</ele>
        <time>2015-08-12T11:23:36Z</time>
      </trkpt>
      <trkpt lat="44.85312" lon="5.19098">
        <ele>686.16</ele>
        <time>2015-08-12T11:26:16Z</time>
      </trkpt>
      <trkpt lat="44.8532" lon="5.19075">
        <ele>675.56</ele>
        <time>2015-08-12T12:02:23Z</time>
      </trkpt>
      <trkpt lat="44.85445" lon="5.19063">
        <ele>673.42</ele>
        <time>2015-08-12T12:02:46Z</time>
      </trkpt>
      <trkpt lat="44.85467" lon="5.19069">
        <ele>677.89</ele>
        <time>2015-08-12T12:02:55Z</time>
      </trkpt>
      <trkpt lat="44.85483" lon="5.19084">
        <ele>691.87</ele>
        <time>2015-08-12T12:08:20Z</time>
      </trkpt>
      <trkpt lat="44.85498" lon="5.19099">
        <ele>705.91</ele>
        <time>2015-08-12T12:10:56Z</time>
      </trkpt>
      <trkpt lat="44.85752" lon="5.19017">
        <ele>709.07</ele>
        <time>2015-08-12T12:18:02Z</time>
      </trkpt>
      <trkpt lat="44.85752" lon="5.1899">
        <ele>722.84</ele>
        <time>2015-08-12T12:22:57Z</time>
      </trkpt>
      <trkpt lat="44.85941" lon="5.18945">
        <ele>732.22</ele>
        <time>2015-08-12T12:24:59Z</time>
      </trkpt>
      <trkpt lat="44.85971" lon="5.18944">
        <ele>742.47</ele>
        <time>2015-08-12T12:26:45Z</time>
      </trkpt>
      <trkpt lat="44.85992" lon="5.18943">
        <ele>736.01</ele>
        <time>2015-08-12T12:31:10Z</time>
      </trkpt>
      <trkpt lat="44.8601" lon="5.18953">
        <ele>729.93</ele>
        <time>2015-08-12T12:31:14Z</time>
      </trkpt>
      <trkpt lat="44.86026" lon="5.18965">
        <ele>726.75</ele>
        <time>2015-08-12T12:31:18Z</time>
      </trkpt>
      <trkpt lat="44.86045" lon="5.18978">
        <ele>721.79</ele>
        <time>2015-08-12T12:31:21Z</time>
      </trkpt>
      <trkpt lat="44.86065" lon="5.18977">
        <ele>718.26</ele>
        <time>2015-08-12T12:31:25Z</time>
      </trkpt>
      <trkpt lat="44.86084" lon="5.18976">
        <ele>716.35</ele>
        <time>2015-08-12T12:31:31Z</time>
      </trkpt>
      <trkpt lat="44.86102" lon="5.18983">
        <ele>715.93</ele>
        <time>2015-08-12T12:31:38Z</time>
      </trkpt>
      <trkpt lat="44.86123" lon="5.18978">
        <ele>722.59</ele>
        <time>2015-08-12T12:31:45Z</time>
      </trkpt>
      <trkpt lat="44.86142" lon="5.18988">
        <ele>728.84</ele>
        <time>2015-08-12T12:31:51Z</time>
      </trkpt>
      <trkpt lat="44.8617" lon="5.18992">
        <ele>735.83</ele>
        <time>2015-08-12T12:32:04Z</time>
      </trkpt>
      <trkpt lat="44.86187" lon="5.18973">
        <ele>742.55</ele>
        <time>2015-08-12T12:32:09Z</time>
      </trkpt>
      <trkpt lat="44.8617" lon="5.18962">
        <ele>746.98</ele>
        <time>2015-08-12T12:32:28Z</time>
      </trkpt>
      <trkpt lat="44.86151" lon="5.18928">
        <ele>764.32</ele>
        <time>2015-08-12T12:33:11Z</time>
      </trkpt>
      <trkpt lat="44.86176" lon="5.18941">
        <ele>756.79</ele>
        <time>2015-08-12T12:36:59Z</time>
      </trkpt>
      <trkpt lat="44.86197" lon="5.18937">
        <ele>751.52</ele>
        <time>2015-08-12T12:37:04Z</time>
      </trkpt>
      <trkpt lat="44.86216" lon="5.18928">
        <ele>751.16</ele>
        <time>2015-08-12T12:37:06Z</time>
      </trkpt>
      <trkpt lat="44.86237" lon="5.18927">
        <ele>752.21</ele>
        <time>2015-08-12T12:37:10Z</time>
      </trkpt>
      <trkpt lat="44.86259" lon="5.18926">
        <ele>755.89</ele>
        <time>2015-08-12T12:37:14Z</time>
      </trkpt>
      <trkpt lat="44.86276" lon="5.18933">
        <ele>757.12</ele>
        <time>2015-08-12T12:45:38Z</time>
      </trkpt>
      <trkpt lat="44.86294" lon="5.18946">
        <ele>759.96</ele>
        <time>2015-08-12T12:47:19Z</time>
      </trkpt>
      <trkpt lat="44.86311" lon="5.18973">
        <ele>757.02</ele>
        <time>2015-08-12T12:47:24Z</time>
      </trkpt>
      <trkpt lat="44.86333" lon="5.18973">
        <ele>759.52</ele>
        <time>2015-08-12T12:47:29Z</time>
      </trkpt>
      <trkpt lat="44.86361" lon="5.19002">
        <ele>769.9</ele>
        <time>2015-08-12T12:47:33Z</time>
      </trkpt>
      <trkpt lat="44.86389" lon="5.1902">
        <ele>769.91</ele>
        <time>2015-08-12T12:47:37Z</time>
      </trkpt>
      <trkpt lat="44.86373" lon="5.19006">
        <ele>769.03</ele>
        <time>2015-08-12T12:47:39Z</time>
      </trkpt>
      <trkpt lat="44.8638" lon="5.1898">
        <ele>772.87</ele>
        <time>2015-08-12T12:47:50Z</time>
      </trkpt>
      <trkpt lat="44.86398" lon="5.18976">
        <ele>776.54</ele>
        <time>2015-08-12T12:48:23Z</time>
      </trkpt>
      <trkpt lat="44.86417" lon="5.18962">
        <ele>771.48</ele>
        <time>2015-08-12T12:48:59Z</time>
      </trkpt>
      <trkpt lat="44.86413" lon="5.18934">
        <ele>767.82</ele>
        <time>2015-08-12T12:49:04Z</time>
      </trkpt>
      <trkpt lat="44.86424" lon="5.18912">
        <ele>764.34</ele>
        <time>2015-08-12T12:51:17Z</time>
      </trkpt>
      <trkpt lat="44.86436" lon="5.18891">
        <ele>761.9</ele>
        <time>2015-08-12T12:51:20Z</time>
      </trkpt>
      <trkpt lat="44.86456" lon="5.18884">
        <ele>759.88</ele>
        <time>2015-08-12T12:51:24Z</time>
      </trkpt>
      <trkpt lat="44.86477" lon="5.18885">
        <ele>758.16</ele>
        <time>2015-08-12T12:51:28Z</time>
      </trkpt>
      <trkpt lat="44.86496" lon="5.18882">
        <ele>761.14</ele>
        <time>2015-08-12T12:51:35Z</time>
      </trkpt>
      <trkpt lat="44.86526" lon="5.18873">
        <ele>761.72</ele>
        <time>2015-08-12T12:51:53Z</time>
      </trkpt>
      <trkpt lat="44.86548" lon="5.18879">
        <ele>763.96</ele>
        <time>2015-08-12T12:54:24Z</time>
      </trkpt>
      <trkpt lat="44.86567" lon="5.18882">
        <ele>762.65</ele>
        <time>2015-08-12T12:54:33Z</time>
      </trkpt>
      <trkpt lat="44.86586" lon="5.18882">
        <ele>781.42</ele>
        <time>2015-08-12T12:55:18Z</time>
      </trkpt>
      <trkpt lat="44.86604" lon="5.18885">
        <ele>776.81</ele>
        <time>2015-08-12T12:55:23Z</time>
      </trkpt>
      <trkpt lat="44.86622" lon="5.18881">
        <ele>779.05</ele>
        <time>2015-08-12T12:55:35Z</time>
      </trkpt>
      <trkpt lat="44.8664" lon="5.18888">
        <ele>784.04</ele>
        <time>2015-08-12T12:56:07Z</time>
      </trkpt>
      <trkpt lat="44.86654" lon="5.18912">
        <ele>781.32</ele>
        <time>2015-08-12T12:56:48Z</time>
      </trkpt>
      <trkpt lat="44.86665" lon="5.18934">
        <ele>780.64</ele>
        <time>2015-08-12T12:57:03Z</time>
      </trkpt>
      <trkpt lat="44.86684" lon="5.18944">
        <ele>783.43</ele>
        <time>2015-08-12T12:57:15Z</time>
      </trkpt>
      <trkpt lat="44.86706" lon="5.18954">
        <ele>785</ele>
        <time>2015-08-12T12:57:19Z</time>
      </trkpt>
      <trkpt lat="44.86687" lon="5.18953">
        <ele>782.16</ele>
        <time>2015-08-12T12:59:59Z</time>
      </trkpt>
      <trkpt lat="44.86682" lon="5.18981">
        <ele>780.44</ele>
        <time>2015-08-12T13:00:27Z</time>
      </trkpt>
      <trkpt lat="44.86667" lon="5.18963">
        <ele>777.37</ele>
        <time>2015-08-12T13:01:23Z</time>
      </trkpt>
      <trkpt lat="44.86651" lon="5.18951">
        <ele>787.7</ele>
        <time>2015-08-12T13:02:34Z</time>
      </trkpt>
      <trkpt lat="44.86634" lon="5.18937">
        <ele>795.83</ele>
        <time>2015-08-12T13:02:50Z</time>
      </trkpt>
      <trkpt lat="44.86615" lon="5.18937">
        <ele>795.69</ele>
        <time>2015-08-12T13:03:12Z</time>
      </trkpt>
      <trkpt lat="44.86598" lon="5.18943">
        <ele>796.97</ele>
        <time>2015-08-12T13:03:54Z</time>
      </trkpt>
      <trkpt lat="44.8658" lon="5.18951">
        <ele>796.26</ele>
        <time>2015-08-12T13:04:01Z</time>
      </trkpt>
      <trkpt lat="44.86563" lon="5.18958">
        <ele>794.74</ele>
        <time>2015-08-12T13:04:17Z</time>
      </trkpt>
      <trkpt lat="44.86546" lon="5.18969">
        <ele>797.59</ele>
        <time>2015-08-12T13:04:30Z</time>
      </trkpt>
      <trkpt lat="44.86539" lon="5.18992">
        <ele>796.12</ele>
        <time>2015-08-12T13:06:06Z</time>
      </trkpt>
      <trkpt lat="44.86528" lon="5.19014">
        <ele>800.74</ele>
        <time>2015-08-12T13:06:18Z</time>
      </trkpt>
      <trkpt lat="44.86515" lon="5.19033">
        <ele>800.34</ele>
        <time>2015-08-12T13:06:29Z</time>
      </trkpt>
      <trkpt lat="44.86499" lon="5.19045">
        <ele>816.92</ele>
        <time>2015-08-12T13:07:34Z</time>
      </trkpt>
      <trkpt lat="44.8648" lon="5.19051">
        <ele>815.08</ele>
        <time>2015-08-12T13:07:49Z</time>
      </trkpt>
      <trkpt lat="44.86461" lon="5.19056">
        <ele>822.8</ele>
        <time>2015-08-12T13:07:59Z</time>
      </trkpt>
      <trkpt lat="44.86442" lon="5.1907">
        <ele>823.46</ele>
        <time>2015-08-12T13:08:16Z</time>
      </trkpt>
      <trkpt lat="44.86423" lon="5.19068">
        <ele>828.82</ele>
        <time>2015-08-12T13:08:56Z</time>
      </trkpt>
      <trkpt lat="44.86405" lon="5.19072">
        <ele>827.49</ele>
        <time>2015-08-12T13:09:01Z</time>
      </trkpt>
      <trkpt lat="44.86387" lon="5.19075">
        <ele>826.7</ele>
        <time>2015-08-12T13:09:10Z</time>
      </trkpt>
      <trkpt lat="44.86369" lon="5.19073">
        <ele>831.31</ele>
        <time>2015-08-12T13:09:24Z</time>
      </trkpt>
      <trkpt lat="44.86353" lon="5.19093">
        <ele>825.08</ele>
        <time>2015-08-12T13:09:46Z</time>
      </trkpt>
      <trkpt lat="44.86336" lon="5.19106">
        <ele>815.48</ele>
        <time>2015-08-12T13:10:09Z</time>
      </trkpt>
      <trkpt lat="44.86314" lon="5.19102">
        <ele>817</ele>
        <time>2015-08-12T13:10:25Z</time>
      </trkpt>
      <trkpt lat="44.86296" lon="5.1909">
        <ele>819.01</ele>
        <time>2015-08-12T13:10:41Z</time>
      </trkpt>
      <trkpt lat="44.86278" lon="5.1908">
        <ele>819.06</ele>
        <time>2015-08-12T13:10:57Z</time>
      </trkpt>
      <trkpt lat="44.86259" lon="5.19072">
        <ele>815.52</ele>
        <time>2015-08-12T13:11:23Z</time>
      </trkpt>
      <trkpt lat="44.86241" lon="5.19078">
        <ele>810.72</ele>
        <time>2015-08-12T13:11:36Z</time>
      </trkpt>
      <trkpt lat="44.86224" lon="5.19089">
        <ele>809.77</ele>
        <time>2015-08-12T13:11:52Z</time>
      </trkpt>
      <trkpt lat="44.86207" lon="5.19097">
        <ele>813.82</ele>
        <time>2015-08-12T13:12:13Z</time>
      </trkpt>
      <trkpt lat="44.86159" lon="5.19131">
        <ele>813.16</ele>
        <time>2015-08-12T13:12:49Z</time>
      </trkpt>
      <trkpt lat="44.86148" lon="5.19151">
        <ele>797.3</ele>
        <time>2015-08-12T13:13:09Z</time>
      </trkpt>
      <trkpt lat="44.8613" lon="5.19149">
        <ele>802.12</ele>
        <time>2015-08-12T13:13:27Z</time>
      </trkpt>
      <trkpt lat="44.86112" lon="5.19145">
        <ele>803.96</ele>
        <time>2015-08-12T13:13:47Z</time>
      </trkpt>
      <trkpt lat="44.86093" lon="5.19152">
        <ele>798.23</ele>
        <time>2015-08-12T13:14:06Z</time>
      </trkpt>
      <trkpt lat="44.86076" lon="5.19157">
        <ele>791.11</ele>
        <time>2015-08-12T13:14:22Z</time>
      </trkpt>
      <trkpt lat="44.86057" lon="5.19155">
        <ele>791.94</ele>
        <time>2015-08-12T13:14:36Z</time>
      </trkpt>
      <trkpt lat="44.86039" lon="5.19157">
        <ele>792.54</ele>
        <time>2015-08-12T13:14:50Z</time>
      </trkpt>
      <trkpt lat="44.86021" lon="5.19162">
        <ele>790.21</ele>
        <time>2015-08-12T13:15:06Z</time>
      </trkpt>
      <trkpt lat="44.86003" lon="5.1916">
        <ele>796.72</ele>
        <time>2015-08-12T13:15:19Z</time>
      </trkpt>
      <trkpt lat="44.85985" lon="5.19167">
        <ele>801.75</ele>
        <time>2015-08-12T13:15:35Z</time>
      </trkpt>
      <trkpt lat="44.85968" lon="5.19181">
        <ele>810.89</ele>
        <time>2015-08-12T13:17:29Z</time>
      </trkpt>
      <trkpt lat="44.8595" lon="5.19178">
        <ele>808.2</ele>
        <time>2015-08-12T13:17:42Z</time>
      </trkpt>
      <trkpt lat="44.85933" lon="5.19188">
        <ele>809.92</ele>
        <time>2015-08-12T13:17:57Z</time>
      </trkpt>
      <trkpt lat="44.85921" lon="5.19209">
        <ele>809.94</ele>
        <time>2015-08-12T13:18:15Z</time>
      </trkpt>
      <trkpt lat="44.85906" lon="5.19224">
        <ele>815.48</ele>
        <time>2015-08-12T13:18:28Z</time>
      </trkpt>
      <trkpt lat="44.85888" lon="5.19231">
        <ele>815.02</ele>
        <time>2015-08-12T13:18:41Z</time>
      </trkpt>
      <trkpt lat="44.8587" lon="5.19227">
        <ele>809.2</ele>
        <time>2015-08-12T13:18:57Z</time>
      </trkpt>
      <trkpt lat="44.85859" lon="5.19247">
        <ele>805.2</ele>
        <time>2015-08-12T13:19:11Z</time>
      </trkpt>
      <trkpt lat="44.8584" lon="5.19252">
        <ele>807.44</ele>
        <time>2015-08-12T13:19:18Z</time>
      </trkpt>
      <trkpt lat="44.85825" lon="5.19269">
        <ele>810.02</ele>
        <time>2015-08-12T13:19:32Z</time>
      </trkpt>
      <trkpt lat="44.85806" lon="5.19268">
        <ele>815.54</ele>
        <time>2015-08-12T13:19:47Z</time>
      </trkpt>
      <trkpt lat="44.85793" lon="5.19285">
        <ele>799.78</ele>
        <time>2015-08-12T13:20:08Z</time>
      </trkpt>
      <trkpt lat="44.85774" lon="5.19298">
        <ele>795.02</ele>
        <time>2015-08-12T13:20:41Z</time>
      </trkpt>
      <trkpt lat="44.85756" lon="5.19305">
        <ele>792.5</ele>
        <time>2015-08-12T13:20:48Z</time>
      </trkpt>
      <trkpt lat="44.8574" lon="5.19316">
        <ele>795.47</ele>
        <time>2015-08-12T13:21:03Z</time>
      </trkpt>
      <trkpt lat="44.85721" lon="5.19318">
        <ele>790.1</ele>
        <time>2015-08-12T13:21:17Z</time>
      </trkpt>
      <trkpt lat="44.85705" lon="5.1933">
        <ele>786.33</ele>
        <time>2015-08-12T13:21:31Z</time>
      </trkpt>
      <trkpt lat="44.85706" lon="5.19356">
        <ele>777.31</ele>
        <time>2015-08-12T13:21:41Z</time>
      </trkpt>
      <trkpt lat="44.85688" lon="5.19366">
        <ele>787.32</ele>
        <time>2015-08-12T13:22:00Z</time>
      </trkpt>
      <trkpt lat="44.85673" lon="5.19383">
        <ele>789.69</ele>
        <time>2015-08-12T13:22:14Z</time>
      </trkpt>
      <trkpt lat="44.85653" lon="5.19382">
        <ele>795.33</ele>
        <time>2015-08-12T13:22:26Z</time>
      </trkpt>
      <trkpt lat="44.85634" lon="5.19385">
        <ele>798.67</ele>
        <time>2015-08-12T13:22:42Z</time>
      </trkpt>
      <trkpt lat="44.85614" lon="5.19387">
        <ele>796.1</ele>
        <time>2015-08-12T13:23:06Z</time>
      </trkpt>
      <trkpt lat="44.85594" lon="5.1939">
        <ele>796.61</ele>
        <time>2015-08-12T13:23:16Z</time>
      </trkpt>
      <trkpt lat="44.85576" lon="5.19392">
        <ele>785.57</ele>
        <time>2015-08-12T13:23:30Z</time>
      </trkpt>
      <trkpt lat="44.85559" lon="5.194">
        <ele>783.31</ele>
        <time>2015-08-12T13:23:47Z</time>
      </trkpt>
      <trkpt lat="44.85543" lon="5.19414">
        <ele>784.23</ele>
        <time>2015-08-12T13:24:05Z</time>
      </trkpt>
      <trkpt lat="44.8553" lon="5.19436">
        <ele>781.91</ele>
        <time>2015-08-12T13:24:24Z</time>
      </trkpt>
      <trkpt lat="44.85513" lon="5.19448">
        <ele>773.76</ele>
        <time>2015-08-12T13:24:39Z</time>
      </trkpt>
      <trkpt lat="44.85495" lon="5.19449">
        <ele>772.37</ele>
        <time>2015-08-12T13:25:13Z</time>
      </trkpt>
      <trkpt lat="44.85476" lon="5.19453">
        <ele>777.89</ele>
        <time>2015-08-12T13:25:26Z</time>
      </trkpt>
      <trkpt lat="44.85459" lon="5.19464">
        <ele>775.66</ele>
        <time>2015-08-12T13:25:46Z</time>
      </trkpt>
      <trkpt lat="44.85443" lon="5.19476">
        <ele>770.43</ele>
        <time>2015-08-12T13:26:02Z</time>
      </trkpt>
      <trkpt lat="44.85425" lon="5.19481">
        <ele>768.92</ele>
        <time>2015-08-12T13:26:18Z</time>
      </trkpt>
      <trkpt lat="44.85406" lon="5.19482">
        <ele>770.61</ele>
        <time>2015-08-12T13:26:28Z</time>
      </trkpt>
      <trkpt lat="44.85399" lon="5.19507">
        <ele>770.66</ele>
        <time>2015-08-12T13:26:44Z</time>
      </trkpt>
      <trkpt lat="44.85412" lon="5.19525">
        <ele>778.22</ele>
        <time>2015-08-12T13:29:35Z</time>
      </trkpt>
      <trkpt lat="44.85398" lon="5.19541">
        <ele>776.43</ele>
        <time>2015-08-12T13:29:57Z</time>
      </trkpt>
      <trkpt lat="44.85387" lon="5.19516">
        <ele>765.29</ele>
        <time>2015-08-12T13:33:06Z</time>
      </trkpt>
      <trkpt lat="44.85372" lon="5.19531">
        <ele>760.77</ele>
        <time>2015-08-12T13:33:23Z</time>
      </trkpt>
      <trkpt lat="44.85355" lon="5.19541">
        <ele>759.51</ele>
        <time>2015-08-12T13:33:39Z</time>
      </trkpt>
      <trkpt lat="44.85338" lon="5.19555">
        <ele>757.35</ele>
        <time>2015-08-12T13:34:02Z</time>
      </trkpt>
      <trkpt lat="44.8532" lon="5.19564">
        <ele>754.51</ele>
        <time>2015-08-12T13:34:25Z</time>
      </trkpt>
      <trkpt lat="44.85304" lon="5.19577">
        <ele>753.84</ele>
        <time>2015-08-12T13:35:10Z</time>
      </trkpt>
      <trkpt lat="44.85285" lon="5.19577">
        <ele>753.85</ele>
        <time>2015-08-12T13:35:25Z</time>
      </trkpt>
      <trkpt lat="44.85267" lon="5.19584">
        <ele>753.99</ele>
        <time>2015-08-12T13:35:47Z</time>
      </trkpt>
      <trkpt lat="44.8525" lon="5.19594">
        <ele>752.41</ele>
        <time>2015-08-12T13:36:02Z</time>
      </trkpt>
      <trkpt lat="44.85231" lon="5.19594">
        <ele>755.64</ele>
        <time>2015-08-12T13:36:18Z</time>
      </trkpt>
      <trkpt lat="44.85211" lon="5.19592">
        <ele>752.57</ele>
        <time>2015-08-12T13:36:36Z</time>
      </trkpt>
      <trkpt lat="44.85192" lon="5.19593">
        <ele>751.93</ele>
        <time>2015-08-12T13:36:50Z</time>
      </trkpt>
      <trkpt lat="44.85174" lon="5.19599">
        <ele>747.31</ele>
        <time>2015-08-12T13:37:06Z</time>
      </trkpt>
      <trkpt lat="44.85155" lon="5.196">
        <ele>740.48</ele>
        <time>2015-08-12T13:37:24Z</time>
      </trkpt>
      <trkpt lat="44.85136" lon="5.19609">
        <ele>735.79</ele>
        <time>2015-08-12T13:38:01Z</time>
      </trkpt>
      <trkpt lat="44.85118" lon="5.19616">
        <ele>734.08</ele>
        <time>2015-08-12T13:38:10Z</time>
      </trkpt>
      <trkpt lat="44.851" lon="5.1962">
        <ele>738.85</ele>
        <time>2015-08-12T13:38:24Z</time>
      </trkpt>
      <trkpt lat="44.85082" lon="5.19624">
        <ele>737.56</ele>
        <time>2015-08-12T13:38:38Z</time>
      </trkpt>
      <trkpt lat="44.85064" lon="5.1963">
        <ele>735.82</ele>
        <time>2015-08-12T13:38:54Z</time>
      </trkpt>
      <trkpt lat="44.85046" lon="5.19637">
        <ele>738.83</ele>
        <time>2015-08-12T13:39:14Z</time>
      </trkpt>
      <trkpt lat="44.8503" lon="5.19648">
        <ele>741.43</ele>
        <time>2015-08-12T13:39:31Z</time>
      </trkpt>
      <trkpt lat="44.85012" lon="5.19656">
        <ele>737.29</ele>
        <time>2015-08-12T13:39:49Z</time>
      </trkpt>
      <trkpt lat="44.84992" lon="5.19661">
        <ele>736.77</ele>
        <time>2015-08-12T13:40:05Z</time>
      </trkpt>
      <trkpt lat="44.84974" lon="5.1967">
        <ele>731.39</ele>
        <time>2015-08-12T13:40:32Z</time>
      </trkpt>
      <trkpt lat="44.84956" lon="5.1967">
        <ele>728.83</ele>
        <time>2015-08-12T13:40:52Z</time>
      </trkpt>
      <trkpt lat="44.84938" lon="5.19671">
        <ele>729.44</ele>
        <time>2015-08-12T13:41:13Z</time>
      </trkpt>
      <trkpt lat="44.84919" lon="5.1967">
        <ele>727.29</ele>
        <time>2015-08-12T13:41:33Z</time>
      </trkpt>
      <trkpt lat="44.84901" lon="5.19667">
        <ele>725.15</ele>
        <time>2015-08-12T13:41:48Z</time>
      </trkpt>
      <trkpt lat="44.84883" lon="5.19662">
        <ele>722.16</ele>
        <time>2015-08-12T13:42:03Z</time>
      </trkpt>
      <trkpt lat="44.84865" lon="5.19665">
        <ele>718.99</ele>
        <time>2015-08-12T13:42:24Z</time>
      </trkpt>
      <trkpt lat="44.84846" lon="5.19663">
        <ele>715.65</ele>
        <time>2015-08-12T13:42:40Z</time>
      </trkpt>
      <trkpt lat="44.84828" lon="5.19667">
        <ele>719.14</ele>
        <time>2015-08-12T13:43:10Z</time>
      </trkpt>
      <trkpt lat="44.84808" lon="5.19666">
        <ele>720.56</ele>
        <time>2015-08-12T13:43:24Z</time>
      </trkpt>
      <trkpt lat="44.84789" lon="5.19663">
        <ele>723.7</ele>
        <time>2015-08-12T13:43:39Z</time>
      </trkpt>
      <trkpt lat="44.8477" lon="5.19662">
        <ele>720.05</ele>
        <time>2015-08-12T13:43:59Z</time>
      </trkpt>
      <trkpt lat="44.84751" lon="5.19656">
        <ele>716.64</ele>
        <time>2015-08-12T13:44:13Z</time>
      </trkpt>
      <trkpt lat="44.84733" lon="5.19662">
        <ele>715.14</ele>
        <time>2015-08-12T13:44:28Z</time>
      </trkpt>
      <trkpt lat="44.84715" lon="5.19663">
        <ele>713.49</ele>
        <time>2015-08-12T13:44:45Z</time>
      </trkpt>
      <trkpt lat="44.84695" lon="5.19662">
        <ele>705.38</ele>
        <time>2015-08-12T13:45:05Z</time>
      </trkpt>
      <trkpt lat="44.84676" lon="5.19666">
        <ele>702.89</ele>
        <time>2015-08-12T13:45:17Z</time>
      </trkpt>
      <trkpt lat="44.84682" lon="5.19641">
        <ele>693.78</ele>
        <time>2015-08-12T13:46:36Z</time>
      </trkpt>
      <trkpt lat="44.84698" lon="5.19628">
        <ele>695.01</ele>
        <time>2015-08-12T13:46:53Z</time>
      </trkpt>
      <trkpt lat="44.84714" lon="5.19611">
        <ele>689.63</ele>
        <time>2015-08-12T13:47:17Z</time>
      </trkpt>
      <trkpt lat="44.84718" lon="5.19586">
        <ele>691.54</ele>
        <time>2015-08-12T13:47:27Z</time>
      </trkpt>
      <trkpt lat="44.84756" lon="5.19546">
        <ele>687.16</ele>
        <time>2015-08-12T13:48:03Z</time>
      </trkpt>
      <trkpt lat="44.84772" lon="5.19533">
        <ele>692.92</ele>
        <time>2015-08-12T13:48:21Z</time>
      </trkpt>
      <trkpt lat="44.84787" lon="5.19519">
        <ele>690.58</ele>
        <time>2015-08-12T13:48:41Z</time>
      </trkpt>
      <trkpt lat="44.84801" lon="5.19501">
        <ele>681.45</ele>
        <time>2015-08-12T13:48:58Z</time>
      </trkpt>
      <trkpt lat="44.84816" lon="5.19484">
        <ele>681.62</ele>
        <time>2015-08-12T13:49:13Z</time>
      </trkpt>
      <trkpt lat="44.84834" lon="5.19474">
        <ele>682.45</ele>
        <time>2015-08-12T13:49:28Z</time>
      </trkpt>
      <trkpt lat="44.84851" lon="5.19461">
        <ele>685.46</ele>
        <time>2015-08-12T13:49:45Z</time>
      </trkpt>
      <trkpt lat="44.84849" lon="5.19435">
        <ele>682.61</ele>
        <time>2015-08-12T13:51:45Z</time>
      </trkpt>
      <trkpt lat="44.84832" lon="5.19443">
        <ele>681.18</ele>
        <time>2015-08-12T13:52:02Z</time>
      </trkpt>
      <trkpt lat="44.84813" lon="5.19446">
        <ele>676.35</ele>
        <time>2015-08-12T13:52:15Z</time>
      </trkpt>
      <trkpt lat="44.84795" lon="5.19445">
        <ele>677.9</ele>
        <time>2015-08-12T13:52:36Z</time>
      </trkpt>
      <trkpt lat="44.84764" lon="5.19439">
        <ele>679.95</ele>
        <time>2015-08-12T13:53:19Z</time>
      </trkpt>
      <trkpt lat="44.84745" lon="5.19434">
        <ele>678.18</ele>
        <time>2015-08-12T13:53:22Z</time>
      </trkpt>
      <trkpt lat="44.84728" lon="5.19427">
        <ele>672.84</ele>
        <time>2015-08-12T13:53:33Z</time>
      </trkpt>
      <trkpt lat="44.8471" lon="5.19419">
        <ele>667.1</ele>
        <time>2015-08-12T13:53:52Z</time>
      </trkpt>
      <trkpt lat="44.84694" lon="5.19408">
        <ele>665.01</ele>
        <time>2015-08-12T13:54:07Z</time>
      </trkpt>
      <trkpt lat="44.84676" lon="5.19398">
        <ele>663.87</ele>
        <time>2015-08-12T13:54:24Z</time>
      </trkpt>
      <trkpt lat="44.84657" lon="5.19398">
        <ele>656.33</ele>
        <time>2015-08-12T13:54:51Z</time>
      </trkpt>
      <trkpt lat="44.84645" lon="5.19376">
        <ele>655.04</ele>
        <time>2015-08-12T13:55:17Z</time>
      </trkpt>
      <trkpt lat="44.84647" lon="5.1935">
        <ele>656.85</ele>
        <time>2015-08-12T13:55:29Z</time>
      </trkpt>
      <trkpt lat="44.84659" lon="5.19329">
        <ele>659.98</ele>
        <time>2015-08-12T13:55:47Z</time>
      </trkpt>
      <trkpt lat="44.84669" lon="5.19308">
        <ele>660.8</ele>
        <time>2015-08-12T13:56:04Z</time>
      </trkpt>
      <trkpt lat="44.8468" lon="5.19288">
        <ele>660.45</ele>
        <time>2015-08-12T13:56:21Z</time>
      </trkpt>
      <trkpt lat="44.84693" lon="5.19268">
        <ele>660.83</ele>
        <time>2015-08-12T13:56:38Z</time>
      </trkpt>
      <trkpt lat="44.84674" lon="5.19266">
        <ele>654.07</ele>
        <time>2015-08-12T13:57:08Z</time>
      </trkpt>
      <trkpt lat="44.84655" lon="5.19269">
        <ele>656.75</ele>
        <time>2015-08-12T13:57:23Z</time>
      </trkpt>
      <trkpt lat="44.84636" lon="5.19273">
        <ele>657.29</ele>
        <time>2015-08-12T13:57:46Z</time>
      </trkpt>
      <trkpt lat="44.84606" lon="5.193">
        <ele>656.35</ele>
        <time>2015-08-12T13:58:15Z</time>
      </trkpt>
      <trkpt lat="44.84588" lon="5.19308">
        <ele>648.57</ele>
        <time>2015-08-12T13:58:29Z</time>
      </trkpt>
      <trkpt lat="44.84575" lon="5.19327">
        <ele>652.48</ele>
        <time>2015-08-12T13:58:48Z</time>
      </trkpt>
      <trkpt lat="44.84559" lon="5.19311">
        <ele>644.4</ele>
        <time>2015-08-12T13:59:13Z</time>
      </trkpt>
      <trkpt lat="44.84548" lon="5.19291">
        <ele>643.05</ele>
        <time>2015-08-12T13:59:37Z</time>
      </trkpt>
      <trkpt lat="44.84529" lon="5.19304">
        <ele>642.11</ele>
        <time>2015-08-12T14:00:26Z</time>
      </trkpt>
      <trkpt lat="44.84522" lon="5.19328">
        <ele>641.48</ele>
        <time>2015-08-12T14:00:41Z</time>
      </trkpt>
      <trkpt lat="44.84527" lon="5.19354">
        <ele>644.51</ele>
        <time>2015-08-12T14:01:00Z</time>
      </trkpt>
      <trkpt lat="44.84542" lon="5.19369">
        <ele>641.97</ele>
        <time>2015-08-12T14:01:17Z</time>
      </trkpt>
      <trkpt lat="44.84554" lon="5.1939">
        <ele>642.81</ele>
        <time>2015-08-12T14:01:31Z</time>
      </trkpt>
      <trkpt lat="44.84538" lon="5.19378">
        <ele>647.5</ele>
        <time>2015-08-12T14:02:19Z</time>
      </trkpt>
      <trkpt lat="44.8452" lon="5.19368">
        <ele>641.76</ele>
        <time>2015-08-12T14:02:35Z</time>
      </trkpt>
      <trkpt lat="44.845" lon="5.19351">
        <ele>649.73</ele>
        <time>2015-08-12T14:03:25Z</time>
      </trkpt>
      <trkpt lat="44.84494" lon="5.19318">
        <ele>653.76</ele>
        <time>2015-08-12T14:03:44Z</time>
      </trkpt>
      <trkpt lat="44.84496" lon="5.19347">
        <ele>639.06</ele>
        <time>2015-08-12T14:04:35Z</time>
      </trkpt>
      <trkpt lat="44.84506" lon="5.19369">
        <ele>636.19</ele>
        <time>2015-08-12T14:04:49Z</time>
      </trkpt>
      <trkpt lat="44.84522" lon="5.19383">
        <ele>628.07</ele>
        <time>2015-08-12T14:05:05Z</time>
      </trkpt>
      <trkpt lat="44.84503" lon="5.19382">
        <ele>648.87</ele>
        <time>2015-08-12T14:06:03Z</time>
      </trkpt>
      <trkpt lat="44.84488" lon="5.19366">
        <ele>649.63</ele>
        <time>2015-08-12T14:06:26Z</time>
      </trkpt>
      <trkpt lat="44.84478" lon="5.19343">
        <ele>647.36</ele>
        <time>2015-08-12T14:06:38Z</time>
      </trkpt>
      <trkpt lat="44.84463" lon="5.19325">
        <ele>644.54</ele>
        <time>2015-08-12T14:06:47Z</time>
      </trkpt>
      <trkpt lat="44.84445" lon="5.1933">
        <ele>643.41</ele>
        <time>2015-08-12T14:07:23Z</time>
      </trkpt>
      <trkpt lat="44.84427" lon="5.19342">
        <ele>639.54</ele>
        <time>2015-08-12T14:07:28Z</time>
      </trkpt>
      <trkpt lat="44.84444" lon="5.19334">
        <ele>623.06</ele>
        <time>2015-08-12T14:07:57Z</time>
      </trkpt>
      <trkpt lat="44.84464" lon="5.19335">
        <ele>624.22</ele>
        <time>2015-08-12T14:08:16Z</time>
      </trkpt>
      <trkpt lat="44.84445" lon="5.19333">
        <ele>618.47</ele>
        <time>2015-08-12T14:09:00Z</time>
      </trkpt>
      <trkpt lat="44.84445" lon="5.1936">
        <ele>619.24</ele>
        <time>2015-08-12T14:10:09Z</time>
      </trkpt>
      <trkpt lat="44.84459" lon="5.19376">
        <ele>618.42</ele>
        <time>2015-08-12T14:10:20Z</time>
      </trkpt>
      <trkpt lat="44.84451" lon="5.19352">
        <ele>603.14</ele>
        <time>2015-08-12T14:12:08Z</time>
      </trkpt>
      <trkpt lat="44.84434" lon="5.19342">
        <ele>604.95</ele>
        <time>2015-08-12T14:12:31Z</time>
      </trkpt>
      <trkpt lat="44.84416" lon="5.19336">
        <ele>603.9</ele>
        <time>2015-08-12T14:12:41Z</time>
      </trkpt>
      <trkpt lat="44.84399" lon="5.1932">
        <ele>607.38</ele>
        <time>2015-08-12T14:12:59Z</time>
      </trkpt>
      <trkpt lat="44.84379" lon="5.19321">
        <ele>608.91</ele>
        <time>2015-08-12T14:13:08Z</time>
      </trkpt>
      <trkpt lat="44.8436" lon="5.19314">
        <ele>622.27</ele>
        <time>2015-08-12T14:13:31Z</time>
      </trkpt>
      <trkpt lat="44.84344" lon="5.19326">
        <ele>622.12</ele>
        <time>2015-08-12T14:13:35Z</time>
      </trkpt>
      <trkpt lat="44.84337" lon="5.19301">
        <ele>676.66</ele>
        <time>2015-08-12T14:14:07Z</time>
      </trkpt>
      <trkpt lat="44.84334" lon="5.19275">
        <ele>690.2</ele>
        <time>2015-08-12T14:14:37Z</time>
      </trkpt>
      <trkpt lat="44.84323" lon="5.1925">
        <ele>687.58</ele>
        <time>2015-08-12T14:14:43Z</time>
      </trkpt>
      <trkpt lat="44.84314" lon="5.19228">
        <ele>677.38</ele>
        <time>2015-08-12T14:14:51Z</time>
      </trkpt>
      <trkpt lat="44.84302" lon="5.19207">
        <ele>680.98</ele>
        <time>2015-08-12T14:15:03Z</time>
      </trkpt>
      <trkpt lat="44.84282" lon="5.19198">
        <ele>684.83</ele>
        <time>2015-08-12T14:15:14Z</time>
      </trkpt>
      <trkpt lat="44.84271" lon="5.19176">
        <ele>685.87</ele>
        <time>2015-08-12T14:15:34Z</time>
      </trkpt>
      <trkpt lat="44.84253" lon="5.19168">
        <ele>679.14</ele>
        <time>2015-08-12T14:15:55Z</time>
      </trkpt>
      <trkpt lat="44.8424" lon="5.19149">
        <ele>672.76</ele>
        <time>2015-08-12T14:16:08Z</time>
      </trkpt>
      <trkpt lat="44.84225" lon="5.19135">
        <ele>660.28</ele>
        <time>2015-08-12T14:16:18Z</time>
      </trkpt>
      <trkpt lat="44.84214" lon="5.19112">
        <ele>644.25</ele>
        <time>2015-08-12T14:16:36Z</time>
      </trkpt>
      <trkpt lat="44.84219" lon="5.19087">
        <ele>642.85</ele>
        <time>2015-08-12T14:16:40Z</time>
      </trkpt>
      <trkpt lat="44.84228" lon="5.19063">
        <ele>645.65</ele>
        <time>2015-08-12T14:16:50Z</time>
      </trkpt>
      <trkpt lat="44.8423" lon="5.19037">
        <ele>654.21</ele>
        <time>2015-08-12T14:17:12Z</time>
      </trkpt>
      <trkpt lat="44.84236" lon="5.19008">
        <ele>658.27</ele>
        <time>2015-08-12T14:17:27Z</time>
      </trkpt>
      <trkpt lat="44.84231" lon="5.18983">
        <ele>661.39</ele>
        <time>2015-08-12T14:17:57Z</time>
      </trkpt>
      <trkpt lat="44.84211" lon="5.18972">
        <ele>659.85</ele>
        <time>2015-08-12T14:18:00Z</time>
      </trkpt>
      <trkpt lat="44.84209" lon="5.18944">
        <ele>638.15</ele>
        <time>2015-08-12T14:19:47Z</time>
      </trkpt>
      <trkpt lat="44.84192" lon="5.18932">
        <ele>634.3</ele>
        <time>2015-08-12T14:19:55Z</time>
      </trkpt>
      <trkpt lat="44.84175" lon="5.1892">
        <ele>614.1</ele>
        <time>2015-08-12T14:20:11Z</time>
      </trkpt>
      <trkpt lat="44.84162" lon="5.18898">
        <ele>602.54</ele>
        <time>2015-08-12T14:20:17Z</time>
      </trkpt>
      <trkpt lat="44.84142" lon="5.18889">
        <ele>593.75</ele>
        <time>2015-08-12T14:20:23Z</time>
      </trkpt>
      <trkpt lat="44.84126" lon="5.18903">
        <ele>594.59</ele>
        <time>2015-08-12T14:20:42Z</time>
      </trkpt>
      <trkpt lat="44.84108" lon="5.18913">
        <ele>598.53</ele>
        <time>2015-08-12T14:21:06Z</time>
      </trkpt>
      <trkpt lat="44.84089" lon="5.18912">
        <ele>598.25</ele>
        <time>2015-08-12T14:21:20Z</time>
      </trkpt>
      <trkpt lat="44.84074" lon="5.18926">
        <ele>597.93</ele>
        <time>2015-08-12T14:21:32Z</time>
      </trkpt>
      <trkpt lat="44.84061" lon="5.18945">
        <ele>598.17</ele>
        <time>2015-08-12T14:21:46Z</time>
      </trkpt>
      <trkpt lat="44.84042" lon="5.18953">
        <ele>595.61</ele>
        <time>2015-08-12T14:21:57Z</time>
      </trkpt>
      <trkpt lat="44.8402" lon="5.18959">
        <ele>578.62</ele>
        <time>2015-08-12T14:22:16Z</time>
      </trkpt>
      <trkpt lat="44.84009" lon="5.18978">
        <ele>574.18</ele>
        <time>2015-08-12T14:22:27Z</time>
      </trkpt>
      <trkpt lat="44.83994" lon="5.18994">
        <ele>573.57</ele>
        <time>2015-08-12T14:22:32Z</time>
      </trkpt>
      <trkpt lat="44.83994" lon="5.18968">
        <ele>580.46</ele>
        <time>2015-08-12T14:22:42Z</time>
      </trkpt>
      <trkpt lat="44.83986" lon="5.18933">
        <ele>591.89</ele>
        <time>2015-08-12T14:23:12Z</time>
      </trkpt>
      <trkpt lat="44.83972" lon="5.18912">
        <ele>592.09</ele>
        <time>2015-08-12T14:23:20Z</time>
      </trkpt>
      <trkpt lat="44.8396" lon="5.18893">
        <ele>576.04</ele>
        <time>2015-08-12T14:23:33Z</time>
      </trkpt>
      <trkpt lat="44.83944" lon="5.1888">
        <ele>568.74</ele>
        <time>2015-08-12T14:23:49Z</time>
      </trkpt>
      <trkpt lat="44.83924" lon="5.18877">
        <ele>570.57</ele>
        <time>2015-08-12T14:24:06Z</time>
      </trkpt>
      <trkpt lat="44.83906" lon="5.18875">
        <ele>563.97</ele>
        <time>2015-08-12T14:24:19Z</time>
      </trkpt>
      <trkpt lat="44.83888" lon="5.18877">
        <ele>564.91</ele>
        <time>2015-08-12T14:24:33Z</time>
      </trkpt>
      <trkpt lat="44.83869" lon="5.18871">
        <ele>570.16</ele>
        <time>2015-08-12T14:24:56Z</time>
      </trkpt>
      <trkpt lat="44.83858" lon="5.18851">
        <ele>574.01</ele>
        <time>2015-08-12T14:25:36Z</time>
      </trkpt>
      <trkpt lat="44.83849" lon="5.18825">
        <ele>579.08</ele>
        <time>2015-08-12T14:26:04Z</time>
      </trkpt>
      <trkpt lat="44.83845" lon="5.18797">
        <ele>583.99</ele>
        <time>2015-08-12T14:26:13Z</time>
      </trkpt>
      <trkpt lat="44.83834" lon="5.18775">
        <ele>588.69</ele>
        <time>2015-08-12T14:26:23Z</time>
      </trkpt>
      <trkpt lat="44.83829" lon="5.18749">
        <ele>591.13</ele>
        <time>2015-08-12T14:26:38Z</time>
      </trkpt>
      <trkpt lat="44.83821" lon="5.18725">
        <ele>596.09</ele>
        <time>2015-08-12T14:26:52Z</time>
      </trkpt>
    </trkseg>
  </trk>
</gpx>